createdAt,value
2018-07-26T00:00:32.879Z,72.44
2018-07-26T00:03:03.365Z,74.09
2018-07-26T00:05:30.491Z,68.41
2018-07-26T00:07:57.495Z,70.51
2018-07-26T00:10:25.392Z,70.55
2018-07-26T00:12:52.413Z,67.57
2018-07-26T00:15:19.424Z,69.82
2018-07-26T00:17:46.475Z,69.69
2018-07-26T00:20:13.487Z,67.48
2018-07-26T00:22:41.635Z,69.59
2018-07-26T00:25:14.850Z,70.63
2018-07-26T00:27:45.823Z,70.41
2018-07-26T00:30:12.866Z,69.86
2018-07-26T00:32:42.010Z,68.44
2018-07-26T00:35:12.135Z,69.29
2018-07-26T00:37:43.879Z,67.94
2018-07-26T00:40:11.883Z,67.71
2018-07-26T00:42:39.019Z,68.26
2018-07-26T00:45:09.316Z,68.32
2018-07-26T00:47:36.452Z,68.43
2018-07-26T00:50:03.604Z,68.38
2018-07-26T00:52:31.313Z,70.21
2018-07-26T00:55:03.371Z,73.59
2018-07-26T00:57:32.319Z,75.21
2018-07-26T01:00:04.547Z,76.11
2018-07-26T01:02:31.577Z,76.87
2018-07-26T01:04:59.698Z,76.66
2018-07-26T01:07:27.767Z,76.59
2018-07-26T01:09:55.871Z,77.39
2018-07-26T01:12:23.044Z,74.62
2018-07-26T01:14:51.852Z,78.30
2018-07-26T01:17:18.973Z,78.25
2018-07-26T01:19:46.102Z,78.36
2018-07-26T01:22:14.172Z,78.50
2018-07-26T01:24:41.220Z,78.27
2018-07-26T01:27:08.287Z,76.80
2018-07-26T01:29:36.313Z,75.30
2018-07-26T01:32:06.943Z,76.33
2018-07-26T01:34:37.042Z,74.58
2018-07-26T01:37:05.846Z,73.78
2018-07-26T01:39:34.056Z,74.57
2018-07-26T01:42:02.887Z,72.70
2018-07-26T01:44:29.938Z,72.83
2018-07-26T01:46:57.031Z,70.14
2018-07-26T01:49:25.221Z,71.48
2018-07-26T01:51:56.375Z,69.22
2018-07-26T01:54:23.488Z,70.66
2018-07-26T01:56:51.388Z,70.32
2018-07-26T01:59:18.578Z,70.16
2018-07-26T02:01:45.762Z,71.14
2018-07-26T02:04:14.411Z,71.51
2018-07-26T02:06:41.478Z,72.91
2018-07-26T02:09:18.439Z,70.95
2018-07-26T02:11:53.053Z,70.75
2018-07-26T02:14:26.711Z,69.39
2018-07-26T02:17:09.659Z,69.08
2018-07-26T02:19:36.687Z,69.64
2018-07-26T02:22:03.795Z,69.59
2018-07-26T02:24:30.862Z,69.39
2018-07-26T02:27:01.616Z,69.25
2018-07-26T02:29:31.723Z,70.52
2018-07-26T02:32:01.801Z,70.31
2018-07-26T02:34:28.857Z,70.00
2018-07-26T02:36:55.949Z,69.83
2018-07-26T02:39:22.969Z,70.44
2018-07-26T02:41:50.923Z,70.58
2018-07-26T02:44:17.983Z,70.85
2018-07-26T02:46:49.099Z,72.04
2018-07-26T02:49:16.911Z,69.52
2018-07-26T02:51:44.964Z,70.67
2018-07-26T02:54:14.174Z,71.56
2018-07-26T02:56:44.907Z,70.61
2018-07-26T02:59:12.124Z,72.86
2018-07-26T03:01:43.869Z,72.17
2018-07-26T03:04:10.938Z,70.59
2018-07-26T03:06:38.018Z,70.54
2018-07-26T03:09:12.390Z,73.36
2018-07-26T03:11:42.504Z,71.39
2018-07-26T03:14:22.851Z,72.93
2018-07-26T03:16:49.945Z,73.77
2018-07-26T03:19:17.031Z,73.58
2018-07-26T03:21:44.111Z,73.37
2018-07-26T03:24:14.824Z,74.54
2018-07-26T03:26:41.835Z,75.00
2018-07-26T03:29:08.900Z,75.90
2018-07-26T03:31:36.178Z,75.58
2018-07-26T03:34:03.296Z,75.96
2018-07-26T03:36:30.460Z,74.46
2018-07-26T03:38:58.446Z,74.98
2018-07-26T03:41:29.108Z,75.72
2018-07-26T03:43:56.932Z,75.16
2018-07-26T03:46:25.203Z,76.22
2018-07-26T03:48:52.891Z,75.98
2018-07-26T03:51:22.016Z,76.42
2018-07-26T03:53:49.080Z,75.27
2018-07-26T03:56:17.990Z,74.02
2018-07-26T03:58:45.068Z,73.44
2018-07-26T04:01:12.122Z,73.70
2018-07-26T04:03:39.273Z,74.24
2018-07-26T04:06:06.421Z,74.38
2018-07-26T04:08:35.557Z,73.58
2018-07-26T04:11:03.516Z,73.39
2018-07-26T04:13:35.047Z,73.94
2018-07-26T04:16:02.086Z,70.31
2018-07-26T04:18:29.108Z,72.09
2018-07-26T04:20:57.274Z,69.81
2018-07-26T04:26:08.929Z,70.06
2018-07-26T04:28:36.580Z,69.01
2018-07-26T04:31:03.892Z,67.13
2018-07-26T04:33:34.517Z,65.48
2018-07-26T04:36:05.699Z,62.22
2018-07-26T04:38:33.784Z,62.52
2018-07-26T04:41:03.931Z,61.76
2018-07-26T04:43:30.981Z,60.04
2018-07-26T04:45:59.053Z,58.09
2018-07-26T04:48:27.015Z,56.46
2018-07-26T04:50:54.126Z,57.90
2018-07-26T04:53:23.006Z,57.08
2018-07-26T04:55:58.073Z,55.99
2018-07-26T04:58:25.465Z,55.55
2018-07-26T05:00:54.134Z,56.91
2018-07-26T05:03:21.185Z,57.23
2018-07-26T05:05:48.328Z,56.33
2018-07-26T05:08:19.278Z,59.18
2018-07-26T05:10:51.294Z,58.82
2018-07-26T05:13:18.409Z,62.67
2018-07-26T05:15:54.733Z,61.36
2018-07-26T05:18:23.495Z,61.15
2018-07-26T05:20:52.596Z,61.07
2018-07-26T05:23:23.143Z,60.32
2018-07-26T05:25:50.470Z,59.82
2018-07-26T05:28:21.061Z,60.77
2018-07-26T05:30:48.148Z,60.38
2018-07-26T05:33:15.318Z,60.92
2018-07-26T05:35:48.590Z,60.68
2018-07-26T05:38:19.101Z,61.10
2018-07-26T05:40:46.296Z,59.20
2018-07-26T05:43:21.090Z,60.27
2018-07-26T05:45:51.137Z,58.74
2018-07-26T05:48:18.180Z,59.64
2018-07-26T05:50:47.157Z,60.50
2018-07-26T05:53:17.200Z,59.97
2018-07-26T05:55:45.044Z,59.64
2018-07-26T05:58:14.048Z,57.29
2018-07-26T06:00:47.439Z,57.65
2018-07-26T06:03:22.028Z,58.60
2018-07-26T06:05:53.443Z,56.70
2018-07-26T06:08:23.549Z,56.47
2018-07-26T06:10:54.215Z,56.00
2018-07-26T06:13:22.105Z,55.21
2018-07-26T06:15:51.030Z,54.62
2018-07-26T06:18:23.393Z,55.06
2018-07-26T06:20:50.494Z,54.58
2018-07-26T06:23:17.573Z,53.25
2018-07-26T06:25:47.607Z,52.64
2018-07-26T06:28:15.687Z,53.76
2018-07-26T06:30:47.545Z,53.05
2018-07-26T06:33:16.499Z,51.32
2018-07-26T06:35:44.494Z,51.79
2018-07-26T06:38:11.721Z,52.72
2018-07-26T06:40:41.844Z,51.86
2018-07-26T06:43:09.037Z,50.16
2018-07-26T06:45:37.261Z,50.89
2018-07-26T06:48:05.113Z,50.08
2018-07-26T06:50:32.193Z,50.51
2018-07-26T06:52:59.413Z,51.14
2018-07-26T06:55:26.469Z,51.61
2018-07-26T06:57:54.269Z,50.40
2018-07-26T07:00:21.400Z,50.70
2018-07-26T07:02:48.636Z,49.58
2018-07-26T07:05:15.729Z,48.55
2018-07-26T07:07:42.827Z,48.50
2018-07-26T07:10:10.618Z,48.52
2018-07-26T07:12:43.925Z,48.33
2018-07-26T07:15:11.526Z,48.27
2018-07-26T07:17:40.594Z,49.01
2018-07-26T07:20:08.313Z,47.28
2018-07-26T07:22:41.440Z,48.55
2018-07-26T07:25:09.137Z,48.23
2018-07-26T07:27:36.205Z,47.96
2018-07-26T07:30:08.492Z,48.41
2018-07-26T07:32:35.538Z,46.92
2018-07-26T07:35:03.714Z,48.63
2018-07-26T07:37:30.953Z,46.02
2018-07-26T07:39:58.722Z,47.46
2018-07-26T07:42:26.633Z,46.79
2018-07-26T07:44:56.775Z,45.92
2018-07-26T07:47:25.600Z,46.24
2018-07-26T07:49:52.705Z,47.16
2018-07-26T07:52:20.854Z,46.67
2018-07-26T07:54:48.647Z,46.21
2018-07-26T07:57:16.636Z,45.10
2018-07-26T07:59:43.793Z,45.08
2018-07-26T08:02:11.663Z,45.32
2018-07-26T08:04:38.903Z,46.29
2018-07-26T08:07:06.012Z,44.67
2018-07-26T08:09:33.987Z,45.91
2018-07-26T08:12:01.683Z,45.23
2018-07-26T08:14:32.456Z,44.11
2018-07-26T08:16:59.493Z,43.59
2018-07-26T08:19:29.605Z,43.50
2018-07-26T08:21:56.685Z,42.37
2018-07-26T08:24:24.654Z,42.95
2018-07-26T08:26:52.276Z,41.40
2018-07-26T08:29:26.677Z,42.25
2018-07-26T08:31:54.751Z,41.58
2018-07-26T08:34:22.541Z,40.86
2018-07-26T08:36:49.652Z,39.13
2018-07-26T08:39:25.495Z,38.85
2018-07-26T08:41:53.721Z,42.21
2018-07-26T08:44:20.901Z,41.14
2018-07-26T08:46:48.036Z,39.77
2018-07-26T08:49:15.189Z,42.92
2018-07-26T08:51:43.100Z,42.85
2018-07-26T08:54:11.291Z,40.55
2018-07-26T08:56:38.404Z,41.55
2018-07-26T08:59:08.490Z,43.00
2018-07-26T09:01:35.616Z,40.79
2018-07-26T09:04:02.767Z,41.55
2018-07-26T09:06:30.655Z,40.80
2018-07-26T09:08:58.700Z,42.02
2018-07-26T09:11:25.761Z,41.13
2018-07-26T09:13:52.836Z,41.17
2018-07-26T09:16:19.889Z,41.34
2018-07-26T09:18:50.540Z,39.72
2018-07-26T09:21:17.721Z,40.27
2018-07-26T09:23:45.661Z,39.29
2018-07-26T09:26:12.804Z,40.10
2018-07-26T09:28:39.839Z,40.19
2018-07-26T09:31:06.933Z,39.50
2018-07-26T09:33:37.920Z,38.92
2018-07-26T09:36:11.628Z,38.54
2018-07-26T09:38:38.775Z,38.27
2018-07-26T09:41:12.534Z,37.34
2018-07-26T09:43:40.271Z,40.10
2018-07-26T09:46:10.517Z,39.98
2018-07-26T09:48:40.701Z,37.63
2018-07-26T09:51:07.788Z,37.16
2018-07-26T09:53:34.892Z,37.80
2018-07-26T09:56:02.032Z,40.18
2018-07-26T09:58:29.176Z,38.08
2018-07-26T10:01:03.946Z,37.01
2018-07-26T10:03:31.045Z,36.53
2018-07-26T10:05:58.820Z,35.70
2018-07-26T10:08:25.967Z,35.83
2018-07-26T10:10:53.157Z,33.31
2018-07-26T10:13:20.463Z,34.38
2018-07-26T10:15:47.639Z,35.85
2018-07-26T10:18:14.819Z,36.59
2018-07-26T10:20:49.673Z,33.66
2018-07-26T10:23:17.781Z,34.85
2018-07-26T10:25:44.892Z,34.57
2018-07-26T10:28:12.106Z,33.65
2018-07-26T10:30:44.576Z,34.45
2018-07-26T10:33:14.746Z,34.89
2018-07-26T10:35:41.801Z,33.81
2018-07-26T10:38:08.917Z,34.80
2018-07-26T10:40:36.067Z,33.95
2018-07-26T10:43:03.126Z,32.11
2018-07-26T10:45:30.236Z,31.69
2018-07-26T10:47:57.372Z,31.37
2018-07-26T10:50:24.456Z,32.04
2018-07-26T10:52:51.626Z,30.92
2018-07-26T10:55:18.859Z,30.75
2018-07-26T10:57:45.957Z,29.46
2018-07-26T11:00:13.125Z,29.31
2018-07-26T11:02:40.346Z,30.43
2018-07-26T11:05:08.752Z,29.50
2018-07-26T11:07:36.139Z,29.16
2018-07-26T11:10:04.731Z,30.26
2018-07-26T11:12:32.948Z,30.60
2018-07-26T11:15:07.077Z,30.78
2018-07-26T11:17:34.759Z,28.72
2018-07-26T11:20:01.987Z,30.51
2018-07-26T11:22:32.098Z,29.20
2018-07-26T11:25:00.296Z,28.81
2018-07-26T11:27:27.566Z,27.71
2018-07-26T11:29:55.310Z,29.82
2018-07-26T11:32:22.553Z,29.50
2018-07-26T11:34:50.856Z,29.08
2018-07-26T11:37:19.874Z,29.60
2018-07-26T11:39:47.008Z,29.47
2018-07-26T11:42:15.295Z,28.52
2018-07-26T11:44:43.195Z,28.84
2018-07-26T11:47:11.415Z,28.68
2018-07-26T11:49:40.506Z,28.91
2018-07-26T11:52:07.638Z,28.90
2018-07-26T11:54:36.336Z,30.24
2018-07-26T11:57:04.424Z,28.45
2018-07-26T11:59:35.323Z,29.11
2018-07-26T12:02:02.484Z,28.80
2018-07-26T12:06:44.833Z,28.95
2018-07-26T12:09:12.843Z,30.08
2018-07-26T12:11:40.354Z,29.08
2018-07-26T12:14:16.354Z,27.64
2018-07-26T12:16:44.271Z,29.49
2018-07-26T12:19:11.359Z,27.93
2018-07-26T12:21:42.848Z,27.08
2018-07-26T12:24:15.371Z,27.81
2018-07-26T12:26:43.428Z,27.11
2018-07-26T12:29:11.456Z,26.29
2018-07-26T12:31:38.760Z,28.40
2018-07-26T12:34:07.941Z,27.75
2018-07-26T12:36:41.244Z,27.21
2018-07-26T12:39:09.633Z,28.42
2018-07-26T12:41:37.089Z,27.56
2018-07-26T12:44:04.228Z,28.04
2018-07-26T12:46:31.428Z,28.60
2018-07-26T12:48:58.591Z,28.45
2018-07-26T12:51:25.906Z,27.82
2018-07-26T12:53:53.966Z,26.22
2018-07-26T12:56:21.209Z,25.14
2018-07-26T12:58:50.206Z,25.70
2018-07-26T13:01:17.883Z,27.45
2018-07-26T13:03:45.088Z,27.27
2018-07-26T13:06:12.323Z,26.96
2018-07-26T13:08:39.420Z,26.32
2018-07-26T13:11:06.520Z,27.19
2018-07-26T13:13:35.367Z,28.24
2018-07-26T13:16:03.382Z,26.69
2018-07-26T13:18:31.365Z,26.68
2018-07-26T13:20:58.601Z,29.44
2018-07-26T13:23:27.444Z,26.69
2018-07-26T13:25:55.316Z,25.84
2018-07-26T13:28:22.417Z,26.37
2018-07-26T13:30:49.586Z,28.75
2018-07-26T13:33:16.751Z,26.56
2018-07-26T13:35:44.892Z,27.63
2018-07-26T13:38:13.075Z,25.93
2018-07-26T13:40:41.848Z,26.46
2018-07-26T13:43:09.176Z,26.42
2018-07-26T13:45:36.306Z,25.02
2018-07-26T13:48:03.376Z,24.19
2018-07-26T13:50:30.503Z,25.64
2018-07-26T13:52:57.673Z,26.58
2018-07-26T13:55:24.965Z,25.95
2018-07-26T13:57:52.119Z,25.58
2018-07-26T14:00:21.041Z,25.58
2018-07-26T14:02:48.990Z,24.58
2018-07-26T14:05:18.008Z,25.16
2018-07-26T14:07:47.180Z,25.35
2018-07-26T14:10:20.314Z,25.13
2018-07-26T14:12:47.424Z,24.92
2018-07-26T14:15:14.622Z,24.41
2018-07-26T14:17:41.847Z,24.97
2018-07-26T14:20:10.267Z,25.66
2018-07-26T14:22:37.552Z,25.08
2018-07-26T14:25:05.143Z,25.23
2018-07-26T14:27:32.227Z,24.03
2018-07-26T14:30:00.386Z,25.29
2018-07-26T14:32:27.504Z,23.27
2018-07-26T14:34:54.660Z,22.64
2018-07-26T14:37:23.527Z,23.76
2018-07-26T14:39:50.763Z,23.46
2018-07-26T14:42:18.450Z,23.95
2018-07-26T14:44:46.875Z,23.67
2018-07-26T14:47:15.077Z,25.53
2018-07-26T14:49:42.281Z,24.33
2018-07-26T14:52:10.269Z,24.97
2018-07-26T14:54:43.609Z,23.83
2018-07-26T14:57:12.594Z,23.15
2018-07-26T14:59:45.527Z,22.92
2018-07-26T15:02:15.828Z,22.92
2018-07-26T15:04:43.082Z,21.75
2018-07-26T15:07:10.992Z,23.30
2018-07-26T15:09:38.183Z,21.44
2018-07-26T15:12:05.620Z,20.84
2018-07-26T15:14:32.719Z,22.64
2018-07-26T15:17:01.412Z,23.49
2018-07-26T15:19:28.528Z,21.27
2018-07-26T15:21:56.750Z,19.97
2018-07-26T15:24:25.732Z,20.14
2018-07-26T15:26:52.800Z,21.00
2018-07-26T15:29:20.475Z,20.65
2018-07-26T15:31:48.592Z,20.14
2018-07-26T15:34:20.480Z,20.34
2018-07-26T15:36:50.546Z,19.88
2018-07-26T15:39:17.637Z,19.23
2018-07-26T15:41:45.053Z,18.67
2018-07-26T15:44:13.334Z,18.35
2018-07-26T15:46:40.482Z,18.30
2018-07-26T15:49:07.763Z,18.30
2018-07-26T15:51:50.158Z,18.48
2018-07-26T15:54:20.310Z,17.47
2018-07-26T15:56:47.565Z,19.10
2018-07-26T15:59:14.620Z,18.55
2018-07-26T16:01:41.713Z,19.45
2018-07-26T16:04:08.933Z,19.99
2018-07-26T16:06:42.329Z,20.53
2018-07-26T16:09:10.325Z,22.00
2018-07-26T16:11:38.740Z,21.71
2018-07-26T16:14:07.104Z,21.12
2018-07-26T16:16:34.298Z,19.98
2018-07-26T16:19:01.756Z,19.26
2018-07-26T16:21:28.885Z,18.96
2018-07-26T16:23:57.081Z,18.61
2018-07-26T16:26:27.293Z,17.73
2018-07-26T16:28:56.435Z,18.10
2018-07-26T16:31:24.620Z,16.83
2018-07-26T16:33:51.714Z,17.07
2018-07-26T16:36:18.963Z,16.74
2018-07-26T16:38:49.118Z,16.76
2018-07-26T16:41:16.918Z,16.92
2018-07-26T16:43:46.851Z,17.60
2018-07-26T16:46:24.539Z,17.56
2018-07-26T16:48:52.668Z,16.55
2018-07-26T16:51:20.629Z,15.52
2018-07-26T16:53:49.554Z,16.65
2018-07-26T16:56:17.876Z,16.77
2018-07-26T16:58:44.870Z,17.33
2018-07-26T17:01:12.923Z,17.09
2018-07-26T17:03:43.542Z,17.24
2018-07-26T17:06:12.896Z,18.30
2018-07-26T17:08:43.703Z,17.33
2018-07-26T17:11:10.859Z,17.56
2018-07-26T17:13:38.892Z,17.28
2018-07-26T17:16:06.794Z,18.07
2018-07-26T17:18:35.318Z,18.24
2018-07-26T17:21:03.245Z,18.16
2018-07-26T17:23:31.266Z,17.57
2018-07-26T17:25:58.879Z,18.90
2018-07-26T17:28:26.539Z,19.28
2018-07-26T17:30:55.616Z,19.40
2018-07-26T17:33:23.401Z,18.12
2018-07-26T17:35:50.515Z,17.94
2018-07-26T17:38:18.445Z,18.85
2018-07-26T17:40:45.844Z,18.78
2018-07-26T17:43:12.968Z,18.92
2018-07-26T17:45:40.189Z,18.77
2018-07-26T17:48:07.295Z,19.15
2018-07-26T17:50:37.588Z,18.57
2018-07-26T17:53:07.834Z,18.55
2018-07-26T17:55:34.919Z,19.74
2018-07-26T17:58:05.337Z,20.21
2018-07-26T18:00:32.608Z,19.03
2018-07-26T18:03:01.428Z,18.70
2018-07-26T18:05:29.091Z,19.64
2018-07-26T18:07:59.763Z,19.13
2018-07-26T18:10:26.937Z,19.60
2018-07-26T18:13:01.524Z,20.44
2018-07-26T18:15:29.711Z,21.62
2018-07-26T18:17:57.459Z,21.41
2018-07-26T18:20:24.552Z,24.21
2018-07-26T18:22:52.028Z,25.69
2018-07-26T18:25:20.226Z,26.55
2018-07-26T18:27:48.060Z,28.39
2018-07-26T18:30:15.390Z,30.32
2018-07-26T18:32:42.509Z,27.85
2018-07-26T18:35:12.389Z,29.85
2018-07-26T18:37:39.461Z,29.96
2018-07-26T18:40:06.875Z,29.66
2018-07-26T18:42:38.087Z,31.10
2018-07-26T18:45:07.205Z,32.41
2018-07-26T18:47:35.612Z,31.22
2018-07-26T18:50:02.934Z,32.42
2018-07-26T18:52:30.066Z,33.54
2018-07-26T18:54:58.232Z,33.86
2018-07-26T18:57:25.505Z,34.71
2018-07-26T18:59:52.711Z,36.07
2018-07-26T19:02:19.830Z,35.01
2018-07-26T19:04:46.928Z,36.72
2018-07-26T19:07:14.125Z,35.19
2018-07-26T19:09:41.281Z,35.74
2018-07-26T19:12:09.494Z,36.86
2018-07-26T19:14:37.705Z,37.28
2018-07-26T19:17:08.646Z,36.80
2018-07-26T19:19:41.883Z,39.05
2018-07-26T19:22:09.132Z,38.51
2018-07-26T19:24:37.414Z,39.58
2018-07-26T19:27:04.634Z,40.06
2018-07-26T19:29:31.896Z,41.51
2018-07-26T19:31:59.201Z,42.03
2018-07-26T19:34:29.370Z,44.45
2018-07-26T19:36:56.631Z,43.67
2018-07-26T19:39:23.883Z,45.53
2018-07-26T19:41:51.196Z,45.98
2018-07-26T19:44:18.685Z,45.95
2018-07-26T19:46:45.950Z,45.42
2018-07-26T19:49:13.116Z,47.68
2018-07-26T19:51:40.297Z,48.57
2018-07-26T19:54:07.548Z,48.20
2018-07-26T19:56:34.768Z,46.95
2018-07-26T19:59:02.208Z,50.30
2018-07-26T20:01:29.267Z,51.05
2018-07-26T20:03:56.579Z,49.91
2018-07-26T20:06:23.591Z,50.61
2018-07-26T20:08:50.725Z,50.91
2018-07-26T20:11:18.798Z,50.74
2018-07-26T20:13:46.591Z,50.57
2018-07-26T20:16:14.152Z,50.18
2018-07-26T20:18:43.072Z,50.97
2018-07-26T20:21:11.180Z,49.77
2018-07-26T20:23:38.404Z,51.80
2018-07-26T20:26:06.526Z,48.96
2018-07-26T20:28:37.364Z,51.55
2018-07-26T20:31:04.681Z,51.60
2018-07-26T20:33:31.734Z,52.59
2018-07-26T20:35:59.851Z,51.72
2018-07-26T20:38:27.275Z,48.93
2018-07-26T20:40:54.554Z,50.12
2018-07-26T20:43:21.867Z,50.80
2018-07-26T20:45:49.057Z,51.04
2018-07-26T20:48:17.216Z,51.21
2018-07-26T20:50:45.314Z,52.00
2018-07-26T20:53:12.591Z,51.76
2018-07-26T20:55:40.191Z,51.55
2018-07-26T20:58:07.299Z,50.15
2018-07-26T21:00:34.466Z,52.19
2018-07-26T21:03:01.542Z,52.57
2018-07-26T21:05:29.616Z,53.10
2018-07-26T21:07:57.658Z,53.36
2018-07-26T21:10:31.204Z,55.58
2018-07-26T21:12:58.356Z,54.53
2018-07-26T21:15:28.298Z,55.96
2018-07-26T21:17:58.446Z,55.77
2018-07-26T21:20:26.507Z,56.96
2018-07-26T21:22:58.649Z,56.21
2018-07-26T21:25:26.633Z,56.61
2018-07-26T21:27:55.602Z,56.33
2018-07-26T21:30:22.744Z,57.44
2018-07-26T21:32:49.857Z,57.06
2018-07-26T21:35:17.030Z,55.17
2018-07-26T21:37:47.216Z,57.16
2018-07-26T21:40:14.396Z,57.31
2018-07-26T21:42:42.320Z,56.98
2018-07-26T21:45:10.508Z,55.65
2018-07-26T21:47:37.660Z,56.45
2018-07-26T21:50:05.731Z,58.00
2018-07-26T21:52:32.796Z,58.71
2018-07-26T21:54:59.879Z,58.53
2018-07-26T21:57:27.159Z,57.53
2018-07-26T21:59:55.209Z,58.57
2018-07-26T22:02:22.367Z,58.58
2018-07-26T22:04:49.697Z,59.85
2018-07-26T22:07:16.760Z,57.86
2018-07-26T22:09:49.655Z,61.85
2018-07-26T22:12:16.724Z,62.81
2018-07-26T22:14:48.980Z,61.87
2018-07-26T22:17:16.185Z,61.83
2018-07-26T22:19:43.294Z,62.59
2018-07-26T22:22:10.421Z,61.81
2018-07-26T22:24:39.121Z,61.94
2018-07-26T22:27:09.258Z,60.18
2018-07-26T22:29:36.402Z,61.63
2018-07-26T22:32:03.611Z,62.03
2018-07-26T22:34:30.701Z,63.04
2018-07-26T22:36:57.827Z,63.21
2018-07-26T22:39:25.741Z,60.00
2018-07-26T22:41:53.847Z,59.86
2018-07-26T22:44:22.653Z,62.68
2018-07-26T22:46:49.843Z,63.09
2018-07-26T22:49:17.692Z,63.42
2018-07-26T22:51:45.639Z,63.50
2018-07-26T22:54:12.782Z,63.98
2018-07-26T22:56:39.876Z,64.58
2018-07-26T22:59:07.827Z,64.38
2018-07-26T23:01:34.889Z,65.26
2018-07-26T23:04:03.124Z,63.21
2018-07-26T23:06:31.292Z,64.42
2018-07-26T23:09:01.255Z,65.48
2018-07-26T23:11:40.163Z,66.02
2018-07-26T23:14:09.221Z,67.56
2018-07-26T23:16:43.558Z,65.53
2018-07-26T23:19:12.154Z,66.54
2018-07-26T23:21:45.498Z,65.59
2018-07-26T23:24:13.154Z,65.93
2018-07-26T23:26:42.297Z,64.27
2018-07-26T23:29:10.170Z,64.58
2018-07-26T23:31:37.345Z,66.44
2018-07-26T23:34:04.488Z,65.77
2018-07-26T23:36:33.336Z,64.94
2018-07-26T23:39:00.456Z,67.51
2018-07-26T23:41:27.601Z,65.49
2018-07-26T23:43:59.860Z,67.60
2018-07-26T23:46:30.774Z,68.77
2018-07-26T23:48:59.664Z,69.28
2018-07-26T23:51:26.756Z,67.30
2018-07-26T23:53:53.848Z,67.36
2018-07-26T23:56:21.907Z,70.66
2018-07-26T23:58:49.699Z,70.04
